CheckWX is a tool to help pilots better visualize weather data.  It is not intended as a substitute for an official pre-flight weather briefing.

05:57:22 UTC

CYYJ METAR
Victoria International Airport
Victoria, Canada
Current

57 mins ago

CYYJ 020500Z 24003KT 190V260 30SM FEW110 12/05 A3019 RMK AC1 AC TR SLP224
Observed
Jun-2 @ 05:00 UTC
Wind
  • 240° at 3 KTS
Visibility
Flight Rules
VFR
Cloud Levels
  • Few at 11,000' AGL
Temperature
12°C / 54°F
Dewpoint
C / 41°F
Humidity
63%
Altimeter
30.19" Hg
Pressure
1022.32 hPa
Previous

2 hours ago

CYYJ 020400Z 13005KT 30SM FEW060 FEW090 15/05 A3017 RMK SC1AC1 SC TR AC TR SLP218
Observed
Jun-2 @ 04:00 UTC
Wind
  • 130° at 5 KTS
Visibility
Flight Rules
VFR
Cloud Levels
  • Few at 6,000' AGL
  • Few at 9,000' AGL
Temperature
15°C / 59°F
Dewpoint
C / 41°F
Humidity
51%
Altimeter
30.17" Hg
Pressure
1021.72 hPa
Previous

3 hours ago

CYYJ 020300Z 13008KT 30SM FEW065 FEW100 17/07 A3016 RMK SC1AC1 SC TR AC TR SLP215
Observed
Jun-2 @ 03:00 UTC
Wind
  • 130° at 8 KTS
Visibility
Flight Rules
VFR
Cloud Levels
  • Few at 6,500' AGL
  • Few at 10,000' AGL
Temperature
17°C / 63°F
Dewpoint
C / 45°F
Humidity
52%
Altimeter
30.16" Hg
Pressure
1021.32 hPa